sensor_id;sensor_type;location;lat;lon;timestamp;P1;durP1;ratioP1;P2;durP2;ratioP2
19903;SDS011;10114;50.970;4.962;2022-12-29T00:01:53;2.83;;;1.20;;
19903;SDS011;10114;50.970;4.962;2022-12-29T00:04:20;3.30;;;1.25;;
19903;SDS011;10114;50.970;4.962;2022-12-29T00:06:46;2.28;;;1.08;;
19903;SDS011;10114;50.970;4.962;2022-12-29T00:09:13;4.72;;;1.35;;
19903;SDS011;10114;50.970;4.962;2022-12-29T00:11:40;3.10;;;1.13;;
19903;SDS011;10114;50.970;4.962;2022-12-29T00:14:06;2.80;;;1.20;;
19903;SDS011;10114;50.970;4.962;2022-12-29T00:16:52;2.38;;;0.93;;
19903;SDS011;10114;50.970;4.962;2022-12-29T00:19:18;2.30;;;1.00;;
19903;SDS011;10114;50.970;4.962;2022-12-29T00:22:03;3.47;;;1.10;;
19903;SDS011;10114;50.970;4.962;2022-12-29T00:24:52;2.63;;;1.10;;
19903;SDS011;10114;50.970;4.962;2022-12-29T00:27:18;3.08;;;0.90;;
19903;SDS011;10114;50.970;4.962;2022-12-29T00:30:07;3.05;;;1.00;;
19903;SDS011;10114;50.970;4.962;2022-12-29T00:32:53;4.28;;;0.90;;
19903;SDS011;10114;50.970;4.962;2022-12-29T00:35:50;3.47;;;0.93;;
19903;SDS011;10114;50.970;4.962;2022-12-29T00:38:18;3.17;;;0.93;;
19903;SDS011;10114;50.970;4.962;2022-12-29T00:41:02;5.55;;;1.02;;
19903;SDS011;10114;50.970;4.962;2022-12-29T00:43:47;2.10;;;0.60;;
19903;SDS011;10114;50.970;4.962;2022-12-29T00:46:32;2.33;;;0.75;;
19903;SDS011;10114;50.970;4.962;2022-12-29T00:48:58;2.28;;;0.70;;
19903;SDS011;10114;50.970;4.962;2022-12-29T00:51:43;2.05;;;0.52;;
19903;SDS011;10114;50.970;4.962;2022-12-29T00:54:09;1.80;;;0.60;;
19903;SDS011;10114;50.970;4.962;2022-12-29T00:56:35;1.65;;;0.50;;
19903;SDS011;10114;50.970;4.962;2022-12-29T00:59:05;4.22;;;0.93;;
19903;SDS011;10114;50.970;4.962;2022-12-29T01:01:31;1.80;;;0.50;;
19903;SDS011;10114;50.970;4.962;2022-12-29T01:03:57;1.55;;;0.70;;
19903;SDS011;10114;50.970;4.962;2022-12-29T01:06:23;2.97;;;0.73;;
19903;SDS011;10114;50.970;4.962;2022-12-29T01:08:50;1.38;;;0.60;;
19903;SDS011;10114;50.970;4.962;2022-12-29T01:11:36;5.38;;;0.80;;
19903;SDS011;10114;50.970;4.962;2022-12-29T01:14:02;2.90;;;0.70;;
19903;SDS011;10114;50.970;4.962;2022-12-29T01:16:28;2.05;;;0.65;;
19903;SDS011;10114;50.970;4.962;2022-12-29T01:18:54;3.00;;;0.57;;
19903;SDS011;10114;50.970;4.962;2022-12-29T01:21:21;4.00;;;0.65;;
19903;SDS011;10114;50.970;4.962;2022-12-29T01:23:47;2.72;;;1.00;;
19903;SDS011;10114;50.970;4.962;2022-12-29T01:26:14;1.80;;;0.90;;
19903;SDS011;10114;50.970;4.962;2022-12-29T01:28:40;4.35;;;0.63;;
19903;SDS011;10114;50.970;4.962;2022-12-29T01:31:07;3.05;;;0.80;;
19903;SDS011;10114;50.970;4.962;2022-12-29T01:33:33;2.33;;;0.85;;
19903;SDS011;10114;50.970;4.962;2022-12-29T01:36:03;2.30;;;0.60;;
19903;SDS011;10114;50.970;4.962;2022-12-29T01:38:30;2.58;;;0.60;;
19903;SDS011;10114;50.970;4.962;2022-12-29T01:40:56;5.57;;;1.05;;
19903;SDS011;10114;50.970;4.962;2022-12-29T01:43:37;3.67;;;1.33;;
19903;SDS011;10114;50.970;4.962;2022-12-29T01:46:04;3.17;;;0.95;;
19903;SDS011;10114;50.970;4.962;2022-12-29T01:48:32;2.92;;;0.90;;
19903;SDS011;10114;50.970;4.962;2022-12-29T01:50:58;3.20;;;0.80;;
19903;SDS011;10114;50.970;4.962;2022-12-29T01:53:25;5.57;;;1.05;;
19903;SDS011;10114;50.970;4.962;2022-12-29T01:55:54;3.40;;;0.68;;
19903;SDS011;10114;50.970;4.962;2022-12-29T01:58:22;3.95;;;1.02;;
19903;SDS011;10114;50.970;4.962;2022-12-29T02:00:48;4.53;;;1.17;;
19903;SDS011;10114;50.970;4.962;2022-12-29T02:03:15;4.80;;;1.13;;
19903;SDS011;10114;50.970;4.962;2022-12-29T02:08:08;5.32;;;0.88;;
19903;SDS011;10114;50.970;4.962;2022-12-29T02:10:35;6.68;;;1.88;;
19903;SDS011;10114;50.970;4.962;2022-12-29T02:13:01;3.38;;;0.90;;
19903;SDS011;10114;50.970;4.962;2022-12-29T02:18:22;6.40;;;1.30;;
19903;SDS011;10114;50.970;4.962;2022-12-29T02:29:06;3.45;;;1.17;;
19903;SDS011;10114;50.970;4.962;2022-12-29T02:36:45;6.07;;;1.45;;
19903;SDS011;10114;50.970;4.962;2022-12-29T02:42:03;5.15;;;1.48;;
19903;SDS011;10114;50.970;4.962;2022-12-29T02:45:19;6.45;;;2.10;;
19903;SDS011;10114;50.970;4.962;2022-12-29T02:49:49;5.70;;;1.42;;
19903;SDS011;10114;50.970;4.962;2022-12-29T02:52:20;3.45;;;1.00;;
19903;SDS011;10114;50.970;4.962;2022-12-29T02:54:49;2.90;;;0.68;;
19903;SDS011;10114;50.970;4.962;2022-12-29T03:10:19;2.17;;;0.75;;
19903;SDS011;10114;50.970;4.962;2022-12-29T03:12:50;2.08;;;0.70;;
19903;SDS011;10114;50.970;4.962;2022-12-29T03:20:55;1.15;;;0.38;;
19903;SDS011;10114;50.970;4.962;2022-12-29T03:23:23;2.22;;;0.50;;
19903;SDS011;10114;50.970;4.962;2022-12-29T03:25:54;0.85;;;0.50;;
19903;SDS011;10114;50.970;4.962;2022-12-29T03:28:22;0.50;;;0.30;;
19903;SDS011;10114;50.970;4.962;2022-12-29T03:30:49;3.40;;;0.60;;
19903;SDS011;10114;50.970;4.962;2022-12-29T03:33:20;2.90;;;0.60;;
19903;SDS011;10114;50.970;4.962;2022-12-29T03:35:47;3.97;;;0.73;;
19903;SDS011;10114;50.970;4.962;2022-12-29T03:38:16;1.13;;;0.50;;
19903;SDS011;10114;50.970;4.962;2022-12-29T03:40:43;2.95;;;0.70;;
19903;SDS011;10114;50.970;4.962;2022-12-29T03:43:10;1.42;;;0.68;;
19903;SDS011;10114;50.970;4.962;2022-12-29T03:45:37;2.83;;;0.63;;
19903;SDS011;10114;50.970;4.962;2022-12-29T03:48:03;4.57;;;0.82;;
19903;SDS011;10114;50.970;4.962;2022-12-29T03:50:30;0.73;;;0.55;;
19903;SDS011;10114;50.970;4.962;2022-12-29T03:52:56;1.15;;;0.60;;
19903;SDS011;10114;50.970;4.962;2022-12-29T03:55:22;3.25;;;0.70;;
19903;SDS011;10114;50.970;4.962;2022-12-29T03:57:48;3.35;;;0.75;;
19903;SDS011;10114;50.970;4.962;2022-12-29T04:00:14;3.65;;;0.80;;
19903;SDS011;10114;50.970;4.962;2022-12-29T04:02:41;2.38;;;0.60;;
19903;SDS011;10114;50.970;4.962;2022-12-29T04:05:07;4.10;;;0.80;;
19903;SDS011;10114;50.970;4.962;2022-12-29T04:07:33;3.78;;;0.77;;
19903;SDS011;10114;50.970;4.962;2022-12-29T04:09:59;2.45;;;0.75;;
19903;SDS011;10114;50.970;4.962;2022-12-29T04:12:25;3.47;;;0.98;;
19903;SDS011;10114;50.970;4.962;2022-12-29T04:14:51;5.63;;;1.05;;
19903;SDS011;10114;50.970;4.962;2022-12-29T04:17:17;5.55;;;0.80;;
19903;SDS011;10114;50.970;4.962;2022-12-29T04:19:44;8.57;;;1.35;;
19903;SDS011;10114;50.970;4.962;2022-12-29T04:22:10;5.40;;;0.90;;
19903;SDS011;10114;50.970;4.962;2022-12-29T04:24:37;3.97;;;0.90;;
19903;SDS011;10114;50.970;4.962;2022-12-29T04:27:03;5.03;;;0.98;;
19903;SDS011;10114;50.970;4.962;2022-12-29T04:29:29;6.28;;;0.95;;
19903;SDS011;10114;50.970;4.962;2022-12-29T04:31:55;8.57;;;1.40;;
19903;SDS011;10114;50.970;4.962;2022-12-29T04:34:21;6.93;;;0.85;;
19903;SDS011;10114;50.970;4.962;2022-12-29T04:36:47;6.00;;;1.30;;
19903;SDS011;10114;50.970;4.962;2022-12-29T04:39:13;4.72;;;0.80;;
19903;SDS011;10114;50.970;4.962;2022-12-29T04:41:39;3.75;;;0.70;;
19903;SDS011;10114;50.970;4.962;2022-12-29T04:44:05;6.00;;;1.08;;
19903;SDS011;10114;50.970;4.962;2022-12-29T04:46:31;8.52;;;0.70;;
19903;SDS011;10114;50.970;4.962;2022-12-29T04:48:57;2.25;;;0.60;;
19903;SDS011;10114;50.970;4.962;2022-12-29T04:51:25;4.68;;;0.75;;
19903;SDS011;10114;50.970;4.962;2022-12-29T04:53:51;5.25;;;1.05;;
19903;SDS011;10114;50.970;4.962;2022-12-29T04:56:17;4.80;;;0.77;;
19903;SDS011;10114;50.970;4.962;2022-12-29T04:58:43;5.75;;;0.88;;
19903;SDS011;10114;50.970;4.962;2022-12-29T05:01:09;4.68;;;0.70;;
19903;SDS011;10114;50.970;4.962;2022-12-29T05:03:35;4.90;;;0.95;;
19903;SDS011;10114;50.970;4.962;2022-12-29T05:06:01;3.25;;;0.65;;
19903;SDS011;10114;50.970;4.962;2022-12-29T05:08:27;9.25;;;1.00;;
19903;SDS011;10114;50.970;4.962;2022-12-29T05:10:53;2.97;;;0.82;;
19903;SDS011;10114;50.970;4.962;2022-12-29T05:13:19;4.22;;;0.68;;
19903;SDS011;10114;50.970;4.962;2022-12-29T05:15:50;8.38;;;0.90;;
19903;SDS011;10114;50.970;4.962;2022-12-29T05:18:16;6.18;;;0.60;;
19903;SDS011;10114;50.970;4.962;2022-12-29T05:20:42;7.80;;;2.10;;
19903;SDS011;10114;50.970;4.962;2022-12-29T05:23:08;5.07;;;0.95;;
19903;SDS011;10114;50.970;4.962;2022-12-29T05:25:35;9.23;;;0.52;;
19903;SDS011;10114;50.970;4.962;2022-12-29T05:28:01;7.95;;;1.27;;
19903;SDS011;10114;50.970;4.962;2022-12-29T05:30:27;6.35;;;1.13;;
19903;SDS011;10114;50.970;4.962;2022-12-29T05:32:53;7.25;;;0.73;;
19903;SDS011;10114;50.970;4.962;2022-12-29T05:35:19;4.40;;;0.80;;
19903;SDS011;10114;50.970;4.962;2022-12-29T05:37:45;5.07;;;0.70;;
19903;SDS011;10114;50.970;4.962;2022-12-29T05:40:11;2.55;;;0.60;;
19903;SDS011;10114;50.970;4.962;2022-12-29T05:42:37;3.72;;;0.60;;
19903;SDS011;10114;50.970;4.962;2022-12-29T05:45:03;10.60;;;1.63;;
19903;SDS011;10114;50.970;4.962;2022-12-29T05:47:32;7.75;;;1.00;;
19903;SDS011;10114;50.970;4.962;2022-12-29T05:49:58;3.05;;;0.85;;
19903;SDS011;10114;50.970;4.962;2022-12-29T05:52:24;5.95;;;1.15;;
19903;SDS011;10114;50.970;4.962;2022-12-29T05:54:50;4.93;;;0.88;;
19903;SDS011;10114;50.970;4.962;2022-12-29T05:57:16;7.43;;;1.08;;
19903;SDS011;10114;50.970;4.962;2022-12-29T05:59:42;5.28;;;0.88;;
19903;SDS011;10114;50.970;4.962;2022-12-29T06:02:09;8.02;;;1.30;;
19903;SDS011;10114;50.970;4.962;2022-12-29T06:04:35;4.90;;;0.73;;
19903;SDS011;10114;50.970;4.962;2022-12-29T06:07:01;8.10;;;1.20;;
19903;SDS011;10114;50.970;4.962;2022-12-29T06:09:27;3.53;;;0.82;;
19903;SDS011;10114;50.970;4.962;2022-12-29T06:11:53;6.70;;;1.00;;
19903;SDS011;10114;50.970;4.962;2022-12-29T06:14:19;9.63;;;1.52;;
19903;SDS011;10114;50.970;4.962;2022-12-29T06:16:45;10.18;;;1.00;;
19903;SDS011;10114;50.970;4.962;2022-12-29T06:19:11;3.67;;;1.00;;
19903;SDS011;10114;50.970;4.962;2022-12-29T06:21:37;7.63;;;1.10;;
19903;SDS011;10114;50.970;4.962;2022-12-29T06:24:04;5.38;;;0.50;;
19903;SDS011;10114;50.970;4.962;2022-12-29T06:26:30;1.15;;;0.52;;
19903;SDS011;10114;50.970;4.962;2022-12-29T06:28:56;8.57;;;1.38;;
19903;SDS011;10114;50.970;4.962;2022-12-29T06:31:22;6.45;;;1.25;;
19903;SDS011;10114;50.970;4.962;2022-12-29T06:33:48;10.50;;;2.10;;
19903;SDS011;10114;50.970;4.962;2022-12-29T06:36:14;7.97;;;1.50;;
19903;SDS011;10114;50.970;4.962;2022-12-29T06:38:40;8.70;;;1.20;;
19903;SDS011;10114;50.970;4.962;2022-12-29T06:41:06;7.03;;;1.17;;
19903;SDS011;10114;50.970;4.962;2022-12-29T06:43:32;8.18;;;1.02;;
19903;SDS011;10114;50.970;4.962;2022-12-29T06:45:59;5.00;;;1.08;;
19903;SDS011;10114;50.970;4.962;2022-12-29T06:48:25;5.65;;;1.13;;
19903;SDS011;10114;50.970;4.962;2022-12-29T06:50:51;6.45;;;1.10;;
19903;SDS011;10114;50.970;4.962;2022-12-29T06:53:17;10.23;;;1.50;;
19903;SDS011;10114;50.970;4.962;2022-12-29T06:55:43;7.10;;;1.00;;
19903;SDS011;10114;50.970;4.962;2022-12-29T06:58:09;8.70;;;1.00;;
19903;SDS011;10114;50.970;4.962;2022-12-29T07:00:35;9.57;;;1.95;;
19903;SDS011;10114;50.970;4.962;2022-12-29T07:03:01;10.38;;;1.38;;
19903;SDS011;10114;50.970;4.962;2022-12-29T07:05:27;6.63;;;0.77;;
19903;SDS011;10114;50.970;4.962;2022-12-29T07:07:54;10.50;;;1.48;;
19903;SDS011;10114;50.970;4.962;2022-12-29T07:10:20;7.45;;;0.93;;
19903;SDS011;10114;50.970;4.962;2022-12-29T07:12:46;6.57;;;1.25;;
19903;SDS011;10114;50.970;4.962;2022-12-29T07:15:12;9.65;;;1.73;;
19903;SDS011;10114;50.970;4.962;2022-12-29T07:17:38;10.73;;;1.50;;
19903;SDS011;10114;50.970;4.962;2022-12-29T07:20:05;2.35;;;0.75;;
19903;SDS011;10114;50.970;4.962;2022-12-29T07:22:31;7.20;;;1.15;;
19903;SDS011;10114;50.970;4.962;2022-12-29T07:24:57;5.22;;;0.95;;
19903;SDS011;10114;50.970;4.962;2022-12-29T07:27:23;8.10;;;1.80;;
19903;SDS011;10114;50.970;4.962;2022-12-29T07:29:49;5.85;;;1.48;;
19903;SDS011;10114;50.970;4.962;2022-12-29T07:32:15;9.32;;;1.33;;
19903;SDS011;10114;50.970;4.962;2022-12-29T07:34:41;11.43;;;1.33;;
19903;SDS011;10114;50.970;4.962;2022-12-29T07:37:09;5.25;;;1.17;;
19903;SDS011;10114;50.970;4.962;2022-12-29T07:39:35;4.55;;;0.90;;
19903;SDS011;10114;50.970;4.962;2022-12-29T07:42:01;6.90;;;1.60;;
19903;SDS011;10114;50.970;4.962;2022-12-29T07:44:27;7.18;;;1.65;;
19903;SDS011;10114;50.970;4.962;2022-12-29T07:46:54;8.05;;;1.45;;
19903;SDS011;10114;50.970;4.962;2022-12-29T07:49:20;7.90;;;2.10;;
19903;SDS011;10114;50.970;4.962;2022-12-29T07:51:46;6.22;;;1.33;;
19903;SDS011;10114;50.970;4.962;2022-12-29T07:54:12;9.57;;;1.27;;
19903;SDS011;10114;50.970;4.962;2022-12-29T07:56:38;9.18;;;1.20;;
19903;SDS011;10114;50.970;4.962;2022-12-29T07:59:04;5.07;;;1.15;;
19903;SDS011;10114;50.970;4.962;2022-12-29T08:01:30;9.23;;;1.10;;
19903;SDS011;10114;50.970;4.962;2022-12-29T08:03:56;6.65;;;1.27;;
19903;SDS011;10114;50.970;4.962;2022-12-29T08:06:22;5.43;;;0.98;;
19903;SDS011;10114;50.970;4.962;2022-12-29T08:08:48;7.53;;;1.33;;
19903;SDS011;10114;50.970;4.962;2022-12-29T08:11:14;6.13;;;1.02;;
19903;SDS011;10114;50.970;4.962;2022-12-29T08:13:40;8.05;;;1.35;;
19903;SDS011;10114;50.970;4.962;2022-12-29T08:16:06;13.00;;;1.55;;
19903;SDS011;10114;50.970;4.962;2022-12-29T08:18:32;8.90;;;1.17;;
19903;SDS011;10114;50.970;4.962;2022-12-29T08:21:02;6.30;;;1.00;;
19903;SDS011;10114;50.970;4.962;2022-12-29T08:23:28;10.27;;;2.17;;
19903;SDS011;10114;50.970;4.962;2022-12-29T08:26:02;11.63;;;1.45;;
19903;SDS011;10114;50.970;4.962;2022-12-29T08:28:29;6.63;;;1.27;;
19903;SDS011;10114;50.970;4.962;2022-12-29T08:30:59;10.73;;;1.15;;
19903;SDS011;10114;50.970;4.962;2022-12-29T08:33:25;7.18;;;1.30;;
19903;SDS011;10114;50.970;4.962;2022-12-29T08:35:51;9.52;;;2.28;;
19903;SDS011;10114;50.970;4.962;2022-12-29T08:38:18;5.35;;;1.10;;
19903;SDS011;10114;50.970;4.962;2022-12-29T08:40:44;4.38;;;0.98;;
19903;SDS011;10114;50.970;4.962;2022-12-29T08:43:10;5.45;;;1.15;;
19903;SDS011;10114;50.970;4.962;2022-12-29T08:45:36;8.93;;;1.33;;
19903;SDS011;10114;50.970;4.962;2022-12-29T08:48:02;17.23;;;1.58;;
19903;SDS011;10114;50.970;4.962;2022-12-29T08:50:28;4.63;;;1.30;;
19903;SDS011;10114;50.970;4.962;2022-12-29T08:52:54;18.00;;;2.03;;
19903;SDS011;10114;50.970;4.962;2022-12-29T08:55:20;10.57;;;1.58;;
19903;SDS011;10114;50.970;4.962;2022-12-29T08:57:46;8.82;;;1.35;;
19903;SDS011;10114;50.970;4.962;2022-12-29T09:00:12;5.15;;;1.23;;
19903;SDS011;10114;50.970;4.962;2022-12-29T09:02:39;8.93;;;1.50;;
19903;SDS011;10114;50.970;4.962;2022-12-29T09:05:06;5.63;;;1.08;;
19903;SDS011;10114;50.970;4.962;2022-12-29T09:07:32;6.85;;;1.23;;
19903;SDS011;10114;50.970;4.962;2022-12-29T09:09:58;9.50;;;1.30;;
19903;SDS011;10114;50.970;4.962;2022-12-29T09:12:24;8.55;;;1.35;;
19903;SDS011;10114;50.970;4.962;2022-12-29T09:14:50;13.82;;;1.38;;
19903;SDS011;10114;50.970;4.962;2022-12-29T09:17:16;7.13;;;1.48;;
19903;SDS011;10114;50.970;4.962;2022-12-29T09:20:01;7.53;;;1.20;;
19903;SDS011;10114;50.970;4.962;2022-12-29T09:22:27;6.43;;;0.98;;
19903;SDS011;10114;50.970;4.962;2022-12-29T09:24:53;7.57;;;1.40;;
19903;SDS011;10114;50.970;4.962;2022-12-29T09:27:19;6.05;;;1.30;;
19903;SDS011;10114;50.970;4.962;2022-12-29T09:29:45;9.05;;;1.85;;
19903;SDS011;10114;50.970;4.962;2022-12-29T09:32:11;14.23;;;2.13;;
19903;SDS011;10114;50.970;4.962;2022-12-29T09:34:37;9.20;;;1.58;;
19903;SDS011;10114;50.970;4.962;2022-12-29T09:37:03;13.32;;;1.50;;
19903;SDS011;10114;50.970;4.962;2022-12-29T09:39:29;7.95;;;1.65;;
19903;SDS011;10114;50.970;4.962;2022-12-29T09:46:59;8.82;;;1.80;;
19903;SDS011;10114;50.970;4.962;2022-12-29T09:51:53;6.47;;;1.48;;
19903;SDS011;10114;50.970;4.962;2022-12-29T09:56:54;4.97;;;1.08;;
19903;SDS011;10114;50.970;4.962;2022-12-29T09:59:22;15.15;;;1.80;;
19903;SDS011;10114;50.970;4.962;2022-12-29T10:04:19;10.80;;;1.33;;
19903;SDS011;10114;50.970;4.962;2022-12-29T10:06:54;9.95;;;1.10;;
19903;SDS011;10114;50.970;4.962;2022-12-29T10:09:30;9.73;;;1.48;;
19903;SDS011;10114;50.970;4.962;2022-12-29T10:25:18;11.32;;;1.30;;
19903;SDS011;10114;50.970;4.962;2022-12-29T10:27:47;8.48;;;1.70;;
19903;SDS011;10114;50.970;4.962;2022-12-29T10:30:13;13.85;;;1.85;;
19903;SDS011;10114;50.970;4.962;2022-12-29T10:35:10;7.15;;;1.30;;
19903;SDS011;10114;50.970;4.962;2022-12-29T10:42:53;7.47;;;1.45;;
19903;SDS011;10114;50.970;4.962;2022-12-29T10:45:20;4.28;;;0.63;;
19903;SDS011;10114;50.970;4.962;2022-12-29T10:47:51;7.63;;;1.40;;
19903;SDS011;10114;50.970;4.962;2022-12-29T10:50:18;14.15;;;1.90;;
19903;SDS011;10114;50.970;4.962;2022-12-29T10:52:44;5.95;;;1.08;;
19903;SDS011;10114;50.970;4.962;2022-12-29T10:55:30;12.88;;;1.20;;
19903;SDS011;10114;50.970;4.962;2022-12-29T10:57:59;11.93;;;2.15;;
19903;SDS011;10114;50.970;4.962;2022-12-29T11:00:29;12.85;;;2.28;;
19903;SDS011;10114;50.970;4.962;2022-12-29T11:08:10;8.23;;;1.10;;
19903;SDS011;10114;50.970;4.962;2022-12-29T11:10:39;12.95;;;2.20;;
19903;SDS011;10114;50.970;4.962;2022-12-29T11:15:38;11.75;;;2.20;;
19903;SDS011;10114;50.970;4.962;2022-12-29T11:18:07;9.75;;;1.35;;
19903;SDS011;10114;50.970;4.962;2022-12-29T11:20:42;6.60;;;0.95;;
19903;SDS011;10114;50.970;4.962;2022-12-29T11:23:22;7.30;;;1.10;;
19903;SDS011;10114;50.970;4.962;2022-12-29T11:26:05;9.18;;;1.90;;
19903;SDS011;10114;50.970;4.962;2022-12-29T11:28:31;12.15;;;1.20;;
19903;SDS011;10114;50.970;4.962;2022-12-29T11:31:01;9.38;;;1.30;;
19903;SDS011;10114;50.970;4.962;2022-12-29T11:33:28;9.90;;;1.48;;
19903;SDS011;10114;50.970;4.962;2022-12-29T11:35:58;14.48;;;2.10;;
19903;SDS011;10114;50.970;4.962;2022-12-29T11:38:26;9.10;;;1.20;;
19903;SDS011;10114;50.970;4.962;2022-12-29T11:40:57;9.80;;;1.33;;
19903;SDS011;10114;50.970;4.962;2022-12-29T11:43:25;8.90;;;1.77;;
19903;SDS011;10114;50.970;4.962;2022-12-29T11:45:54;6.32;;;1.52;;
19903;SDS011;10114;50.970;4.962;2022-12-29T11:48:21;10.68;;;1.88;;
19903;SDS011;10114;50.970;4.962;2022-12-29T11:50:54;9.95;;;1.17;;
19903;SDS011;10114;50.970;4.962;2022-12-29T11:53:21;14.85;;;1.45;;
19903;SDS011;10114;50.970;4.962;2022-12-29T11:58:18;8.10;;;1.40;;
19903;SDS011;10114;50.970;4.962;2022-12-29T12:00:44;12.18;;;1.88;;
19903;SDS011;10114;50.970;4.962;2022-12-29T12:03:18;9.90;;;1.35;;
19903;SDS011;10114;50.970;4.962;2022-12-29T12:05:50;11.88;;;1.58;;
19903;SDS011;10114;50.970;4.962;2022-12-29T12:08:27;8.40;;;1.23;;
19903;SDS011;10114;50.970;4.962;2022-12-29T12:11:03;9.35;;;1.63;;
19903;SDS011;10114;50.970;4.962;2022-12-29T12:13:32;6.43;;;1.15;;
19903;SDS011;10114;50.970;4.962;2022-12-29T12:21:09;9.90;;;1.63;;
19903;SDS011;10114;50.970;4.962;2022-12-29T12:23:38;8.52;;;1.25;;
19903;SDS011;10114;50.970;4.962;2022-12-29T12:26:11;7.05;;;1.20;;
19903;SDS011;10114;50.970;4.962;2022-12-29T12:33:46;6.65;;;1.27;;
19903;SDS011;10114;50.970;4.962;2022-12-29T12:36:17;8.48;;;1.70;;
19903;SDS011;10114;50.970;4.962;2022-12-29T12:38:54;6.13;;;1.70;;
19903;SDS011;10114;50.970;4.962;2022-12-29T12:41:25;8.63;;;1.83;;
19903;SDS011;10114;50.970;4.962;2022-12-29T12:43:55;7.25;;;1.33;;
19903;SDS011;10114;50.970;4.962;2022-12-29T12:52:42;5.97;;;1.30;;
19903;SDS011;10114;50.970;4.962;2022-12-29T12:54:40;8.05;;;1.20;;
19903;SDS011;10114;50.970;4.962;2022-12-29T12:57:17;9.68;;;1.60;;
19903;SDS011;10114;50.970;4.962;2022-12-29T12:59:49;10.85;;;2.08;;
19903;SDS011;10114;50.970;4.962;2022-12-29T13:02:29;11.02;;;2.25;;
19903;SDS011;10114;50.970;4.962;2022-12-29T13:05:14;9.40;;;2.05;;
19903;SDS011;10114;50.970;4.962;2022-12-29T13:07:47;9.02;;;1.88;;
19903;SDS011;10114;50.970;4.962;2022-12-29T13:10:22;9.35;;;1.27;;
19903;SDS011;10114;50.970;4.962;2022-12-29T13:20:39;6.95;;;1.85;;
19903;SDS011;10114;50.970;4.962;2022-12-29T13:25:48;9.13;;;1.40;;
19903;SDS011;10114;50.970;4.962;2022-12-29T13:38:17;10.15;;;1.45;;
19903;SDS011;10114;50.970;4.962;2022-12-29T13:40:49;12.65;;;1.65;;
19903;SDS011;10114;50.970;4.962;2022-12-29T13:43:16;8.30;;;1.90;;
19903;SDS011;10114;50.970;4.962;2022-12-29T13:45:43;4.85;;;1.00;;
19903;SDS011;10114;50.970;4.962;2022-12-29T13:48:15;5.53;;;1.20;;
19903;SDS011;10114;50.970;4.962;2022-12-29T13:50:42;13.43;;;1.48;;
19903;SDS011;10114;50.970;4.962;2022-12-29T13:53:19;6.10;;;1.33;;
19903;SDS011;10114;50.970;4.962;2022-12-29T13:56:10;8.85;;;1.80;;
19903;SDS011;10114;50.970;4.962;2022-12-29T13:58:46;6.03;;;1.20;;
19903;SDS011;10114;50.970;4.962;2022-12-29T14:03:44;8.93;;;1.60;;
19903;SDS011;10114;50.970;4.962;2022-12-29T14:08:41;10.90;;;1.85;;
19903;SDS011;10114;50.970;4.962;2022-12-29T14:11:11;9.90;;;1.33;;
19903;SDS011;10114;50.970;4.962;2022-12-29T14:13:41;9.75;;;2.13;;
19903;SDS011;10114;50.970;4.962;2022-12-29T14:16:10;10.95;;;2.40;;
19903;SDS011;10114;50.970;4.962;2022-12-29T14:18:46;11.27;;;1.83;;
19903;SDS011;10114;50.970;4.962;2022-12-29T14:21:22;9.90;;;1.50;;
19903;SDS011;10114;50.970;4.962;2022-12-29T14:23:52;6.15;;;1.60;;
19903;SDS011;10114;50.970;4.962;2022-12-29T14:28:57;10.48;;;2.28;;
19903;SDS011;10114;50.970;4.962;2022-12-29T14:31:40;11.77;;;1.88;;
19903;SDS011;10114;50.970;4.962;2022-12-29T14:38:59;15.18;;;2.10;;
19903;SDS011;10114;50.970;4.962;2022-12-29T14:41:26;10.68;;;1.77;;
19903;SDS011;10114;50.970;4.962;2022-12-29T14:43:54;12.25;;;1.75;;
19903;SDS011;10114;50.970;4.962;2022-12-29T14:46:21;13.38;;;1.60;;
19903;SDS011;10114;50.970;4.962;2022-12-29T14:48:52;8.73;;;1.80;;
19903;SDS011;10114;50.970;4.962;2022-12-29T14:51:21;10.68;;;1.65;;
19903;SDS011;10114;50.970;4.962;2022-12-29T14:53:52;12.05;;;2.03;;
19903;SDS011;10114;50.970;4.962;2022-12-29T14:56:18;10.43;;;1.92;;
19903;SDS011;10114;50.970;4.962;2022-12-29T15:01:26;16.73;;;1.98;;
19903;SDS011;10114;50.970;4.962;2022-12-29T15:03:57;12.30;;;2.03;;
19903;SDS011;10114;50.970;4.962;2022-12-29T15:06:27;11.85;;;1.88;;
19903;SDS011;10114;50.970;4.962;2022-12-29T15:09:16;17.92;;;2.00;;
19903;SDS011;10114;50.970;4.962;2022-12-29T15:12:00;11.40;;;2.22;;
19903;SDS011;10114;50.970;4.962;2022-12-29T15:14:35;11.13;;;2.10;;
19903;SDS011;10114;50.970;4.962;2022-12-29T15:17:01;12.02;;;1.63;;
19903;SDS011;10114;50.970;4.962;2022-12-29T15:19:35;12.27;;;2.13;;
19903;SDS011;10114;50.970;4.962;2022-12-29T15:22:01;7.10;;;1.30;;
19903;SDS011;10114;50.970;4.962;2022-12-29T15:24:28;7.53;;;1.30;;
19903;SDS011;10114;50.970;4.962;2022-12-29T15:26:54;3.25;;;0.70;;
19903;SDS011;10114;50.970;4.962;2022-12-29T15:29:31;3.88;;;1.00;;
19903;SDS011;10114;50.970;4.962;2022-12-29T15:32:02;4.93;;;0.90;;
19903;SDS011;10114;50.970;4.962;2022-12-29T15:34:35;6.95;;;1.23;;
19903;SDS011;10114;50.970;4.962;2022-12-29T15:37:05;3.83;;;1.00;;
19903;SDS011;10114;50.970;4.962;2022-12-29T15:39:32;8.13;;;1.70;;
19903;SDS011;10114;50.970;4.962;2022-12-29T15:44:43;8.30;;;1.48;;
19903;SDS011;10114;50.970;4.962;2022-12-29T15:47:20;10.30;;;1.55;;
19903;SDS011;10114;50.970;4.962;2022-12-29T15:49:50;11.05;;;1.92;;
19903;SDS011;10114;50.970;4.962;2022-12-29T15:52:19;6.07;;;1.58;;
19903;SDS011;10114;50.970;4.962;2022-12-29T15:54:45;5.57;;;1.08;;
19903;SDS011;10114;50.970;4.962;2022-12-29T15:57:22;9.00;;;1.10;;
19903;SDS011;10114;50.970;4.962;2022-12-29T15:59:48;5.40;;;1.48;;
19903;SDS011;10114;50.970;4.962;2022-12-29T16:02:15;8.77;;;1.50;;
19903;SDS011;10114;50.970;4.962;2022-12-29T16:04:41;11.20;;;1.60;;
19903;SDS011;10114;50.970;4.962;2022-12-29T16:07:25;5.70;;;1.20;;
19903;SDS011;10114;50.970;4.962;2022-12-29T16:09:58;11.30;;;2.55;;
19903;SDS011;10114;50.970;4.962;2022-12-29T16:12:26;8.55;;;2.08;;
19903;SDS011;10114;50.970;4.962;2022-12-29T16:15:01;7.78;;;2.40;;
19903;SDS011;10114;50.970;4.962;2022-12-29T16:17:29;9.15;;;1.92;;
19903;SDS011;10114;50.970;4.962;2022-12-29T16:22:26;8.77;;;1.50;;
19903;SDS011;10114;50.970;4.962;2022-12-29T16:24:55;10.57;;;1.50;;
19903;SDS011;10114;50.970;4.962;2022-12-29T16:27:25;6.07;;;1.70;;
19903;SDS011;10114;50.970;4.962;2022-12-29T16:29:53;9.50;;;1.92;;
19903;SDS011;10114;50.970;4.962;2022-12-29T16:34:49;6.07;;;1.70;;
19903;SDS011;10114;50.970;4.962;2022-12-29T16:37:29;12.02;;;2.60;;
19903;SDS011;10114;50.970;4.962;2022-12-29T16:39:55;8.45;;;2.70;;
19903;SDS011;10114;50.970;4.962;2022-12-29T16:47:35;7.10;;;2.08;;
19903;SDS011;10114;50.970;4.962;2022-12-29T16:50:10;10.18;;;2.25;;
19903;SDS011;10114;50.970;4.962;2022-12-29T16:52:38;12.48;;;2.28;;
19903;SDS011;10114;50.970;4.962;2022-12-29T16:55:04;13.43;;;2.78;;
19903;SDS011;10114;50.970;4.962;2022-12-29T16:57:31;14.80;;;3.13;;
19903;SDS011;10114;50.970;4.962;2022-12-29T17:00:07;13.75;;;4.20;;
19903;SDS011;10114;50.970;4.962;2022-12-29T17:02:43;23.80;;;5.07;;
19903;SDS011;10114;50.970;4.962;2022-12-29T17:05:13;22.80;;;4.97;;
19903;SDS011;10114;50.970;4.962;2022-12-29T17:07:39;12.68;;;4.57;;
19903;SDS011;10114;50.970;4.962;2022-12-29T17:10:05;18.80;;;4.45;;
19903;SDS011;10114;50.970;4.962;2022-12-29T17:12:32;18.52;;;4.13;;
19903;SDS011;10114;50.970;4.962;2022-12-29T17:15:00;16.20;;;4.65;;
19903;SDS011;10114;50.970;4.962;2022-12-29T17:17:31;17.88;;;4.30;;
19903;SDS011;10114;50.970;4.962;2022-12-29T17:20:04;14.70;;;2.97;;
19903;SDS011;10114;50.970;4.962;2022-12-29T17:22:30;13.55;;;2.42;;
19903;SDS011;10114;50.970;4.962;2022-12-29T17:24:57;18.25;;;2.70;;
19903;SDS011;10114;50.970;4.962;2022-12-29T17:28:07;19.33;;;2.70;;